Flight Track Log - Related Links

Times and Time Zones

All times are in EDT time to prevent confusion due to time zone crossing. See the N163CA flight status page for this flight to view local times or setup timezone preferences in your user account.

Time Position Orientation Groundspeed Altitude Reporting Facility
EDT Latitude Longitude Course Direction KTS MPH feet Rate Location/Type
Wed 08:58:17 AM 28.7833 -81.2333 120° Southeast 88 101 600  Level Orlando TRACON
Wed 08:59:35 AM 28.7667 -81.2000 120° Southeast 85 98 1,700 538 Climbing Orlando TRACON
Wed 09:00:42 AM 28.7667 -81.1500 90° East 101 116 1,900 94 Climbing Orlando TRACON
Wed 09:01:42 AM 28.7500 -81.1167 120° Southeast 111 128 1,900 50 Level Orlando TRACON
Wed 09:02:42 AM 28.7500 -81.1000 90° East 105 121 2,000 368 Climbing Orlando TRACON
Wed 09:03:36 AM 28.7333 -81.0667 120° Southeast 102 117 2,600 474 Climbing Orlando TRACON
Wed 09:04:36 AM 28.7333 -81.0333 90° East 102 117 2,900 190 Climbing Orlando TRACON
Wed 09:05:42 AM 28.7000 -81.0500 204° Southwest 123 142 3,000 48 Climbing Orlando TRACON
Wed 09:06:42 AM 28.7000 -81.1000 270° West 123 142 3,000 -52 Level Orlando TRACON
Wed 09:07:37 AM 28.7000 -81.1333 270° West 144 166 2,900 -52 Descending Orlando TRACON
Wed 09:08:37 AM 28.6833 -81.1833 249° West 150 173 2,900  Level Orlando TRACON
Wed 09:09:37 AM 28.6833 -81.2333 270° West 157 181 2,900 50 Level Orlando TRACON
Wed 09:10:37 AM 28.6667 -81.2667 240° Southwest 152 175 3,000  Climbing Orlando TRACON
Wed 09:11:44 AM 28.6667 -81.3333 270° West 153 176 2,900 94 Descending Orlando TRACON
Wed 09:12:44 AM 28.6667 -81.3667 270° West 146 168 3,200 619 Climbing Orlando TRACON
Wed 09:13:50 AM 28.6500 -81.4167 249° West 113 130 4,200 952 Climbing Orlando TRACON
Wed 09:14:50 AM 28.6500 -81.4500 270° West 111 128 5,200 850 Climbing Orlando TRACON
Wed 09:15:50 AM 28.6500 -81.4833 270° West 113 130 5,900 440 Climbing Orlando TRACON
Wed 09:16:39 AM 28.6500 -81.5167 270° West 141 162 6,000 55 Climbing Orlando TRACON
Wed 09:17:39 AM 28.6167 -81.5500 221° Southwest 147 169 6,000  Level Orlando TRACON
Wed 09:18:51 AM 28.5667 -81.5667 196° South 149 171 6,000 364 Level Orlando TRACON
Wed 09:19:51 AM 28.5333 -81.5500 156° South 129 148 6,800 789 Climbing Orlando TRACON
Wed 09:20:45 AM 28.5000 -81.5500 180° South 117 135 7,500 626 Climbing Orlando TRACON
Wed 09:21:46 AM 28.4667 -81.5500 180° South 114 131 8,000 209 Climbing Orlando TRACON
Wed 09:22:40 AM 28.4333 -81.5500 180° South 143 165 7,900  Descending Orlando TRACON
Wed 09:23:40 AM 28.3833 -81.5333 164° South 156 180 8,000  Climbing Orlando TRACON
Wed 09:24:46 AM 28.3500 -81.5333 180° South 153 176 7,900 -48 Descending Orlando TRACON
Wed 09:25:46 AM 28.3000 -81.5167 164° South 152 175 7,900 50 Level Orlando TRACON
Wed 09:26:47 AM 28.2667 -81.5167 180° South 150 173 8,000  Climbing Orlando TRACON
Wed 09:27:47 AM 28.2167 -81.5000 164° South 152 175 7,900 -53 Descending Orlando TRACON
Wed 09:28:41 AM 28.1833 -81.5000 180° South 154 177 7,900 35 Level Orlando TRACON
Wed 09:30:38 AM 28.1028 -81.4933 176° South 157 181 8,000  Climbing Miami Center
Wed 09:31:38 AM 28.0589 -81.4964 184° South 157 181 7,900 -50 Descending Miami Center
Wed 09:32:38 AM 28.0150 -81.4992 183° South 157 181 7,900  Level Miami Center
Wed 09:33:38 AM 27.9731 -81.4997 181° South 157 181 7,900 50 Level Miami Center
Wed 09:34:38 AM 27.9314 -81.5006 181° South 157 181 8,000 50 Climbing Miami Center
Wed 09:35:38 AM 27.8894 -81.5058 186° South 157 181 8,000  Level Miami Center
Wed 09:36:38 AM 27.8478 -81.5089 184° South 157 181 8,000  Level Miami Center
Wed 09:37:38 AM 27.8039 -81.5117 183° South 157 181 8,000  Level Miami Center
Wed 09:38:38 AM 27.7619 -81.5169 186° South 157 181 8,000 -300 Level Miami Center
Wed 09:39:38 AM 27.7158 -81.5175 181° South 162 186 7,400 -500 Descending Miami Center
Wed 09:40:38 AM 27.6678 -81.5225 185° South 167 192 7,000 -200 Descending Miami Center
Wed 09:41:38 AM 27.6239 -81.5253 183° South 167 192 7,000  Level Miami Center
Wed 09:42:38 AM 27.5778 -81.5306 186° South 162 186 7,000 -50 Level Miami Center
Wed 09:43:38 AM 27.5339 -81.5336 184° South 162 186 6,900 -50 Descending Miami Center
Wed 09:44:38 AM 27.4900 -81.5364 183° South 162 186 6,900  Level Miami Center
Wed 09:45:38 AM 27.4481 -81.5417 186° South 162 186 6,900  Level Miami Center
Wed 09:46:38 AM 27.4042 -81.5422 181° South 162 186 6,900  Level Miami Center
Wed 09:47:38 AM 27.3603 -81.5453 184° South 162 186 6,900  Level Miami Center
Wed 09:48:38 AM 27.3161 -81.5528 189° South 162 186 6,900  Level Miami Center
Wed 09:49:38 AM 27.2722 -81.5556 183° South 162 186 6,900  Level Miami Center
Wed 09:50:38 AM 27.2283 -81.5583 183° South 162 186 6,900  Level Miami Center
Wed 09:51:38 AM 27.1844 -81.5614 184° South 162 186 6,900  Level Miami Center
Wed 09:52:38 AM 27.1403 -81.5689 189° South 162 186 6,900 -50 Level Miami Center
Wed 09:53:38 AM 27.0942 -81.5717 183° South 162 186 6,800  Descending Miami Center
Wed 09:54:38 AM 27.0503 -81.5769 186° South 162 186 6,900  Climbing Miami Center
Wed 09:55:38 AM 27.0064 -81.5750 178° South 162 186 6,800  Descending Miami Center
Wed 09:56:38 AM 26.9625 -81.5756 181° South 162 186 6,900 Climbing Miami Center
Wed 09:58:00 AM 26.9127 -81.5794 184° South  Level FlightAware Approximate
Wed 10:05:00 AM 26.6575 -81.5993 184° South  Level FlightAware Approximate
Wed 10:06:00 AM 26.6211 -81.6021 184° South  Level FlightAware Approximate
Wed 10:07:00 AM 26.5846 -81.6050 184° South  Level FlightAware Approximate
Wed 10:07:14 AM 26.4997 -81.5569 184° South 153 176 6,900  Level Miami Center
Wed 10:08:00 AM 26.5482 -81.6078 184° South  Level FlightAware Approximate
Wed 10:08:14 AM 26.4558 -81.5553 178° South 160 184 6,800  Level Miami Center
Wed 10:09:00 AM 26.5117 -81.6106 184° South  Level FlightAware Approximate
Wed 10:09:14 AM 26.4122 -81.5558 181° South 160 184 6,900  Level Miami Center
Wed 10:10:00 AM 26.4753 -81.6134 184° South  Level FlightAware Approximate
Wed 10:10:14 AM 26.3642 -81.5564 181° South 160 184 6,900  Level Miami Center
Wed 10:11:00 AM 26.4388 -81.6162 184° South  Level FlightAware Approximate
Wed 10:11:14 AM 26.3200 -81.5617 186° South 160 184 6,900  Level Miami Center
Wed 10:12:14 AM 26.2761 -81.5644 183° South 155 178 6,900  Level Miami Center
Wed 10:13:14 AM 26.2361 -81.5744 193° South 161 185 6,900  Level Miami Center
Wed 10:14:14 AM 26.1881 -81.5794 185° South 156 180 6,900  Level Miami Center
Wed 10:15:14 AM 26.1481 -81.5847 187° South 161 185 6,900  Level Miami Center
Wed 10:16:14 AM 26.1019 -81.5922 188° South 161 185 6,900  Level Miami Center
Wed 10:17:14 AM 26.0578 -81.5997 189° South 156 180 6,900  Level Miami Center
Wed 10:18:14 AM 26.0242 -81.6031 185° South 156 180 6,900  Level Miami Center
Wed 10:19:14 AM 25.9803 -81.6058 183° South 156 180 6,900  Level Miami Center
Wed 10:20:14 AM 25.9364 -81.6086 183° South 161 185 6,900  Level Miami Center
Wed 10:21:14 AM 25.8925 -81.6117 184° South 156 180 6,900  Level Miami Center
Wed 10:22:14 AM 25.8506 -81.6122 181° South 156 180 6,900  Level Miami Center
Wed 10:23:14 AM 25.8069 -81.6128 181° South 156 180 6,900  Level Miami Center
Wed 10:24:14 AM 25.7647 -81.6203 189° South 156 180 6,900 -50 Level Miami Center
Wed 10:25:14 AM 25.7189 -81.6231 183° South 162 186 6,800  Descending Miami Center
Wed 10:26:14 AM 25.6811 -81.6264 185° South 162 186 6,900 -150 Climbing Miami Center
Wed 10:27:14 AM 25.6350 -81.6314 186° South 162 186 6,500 -350 Descending Miami Center
Wed 10:28:14 AM 25.5889 -81.6342 183° South 162 186 6,200 -350 Descending Miami Center
Wed 10:29:14 AM 25.5428 -81.6439 191° South 162 186 5,800 -350 Descending Miami Center
Wed 10:30:14 AM 25.4964 -81.6536 191° South 162 186 5,500 -350 Descending Miami Center
Wed 10:31:14 AM 25.4503 -81.6608 188° South 162 186 5,100 -300 Descending Miami Center
Wed 10:32:14 AM 25.4042 -81.6636 183° South 162 186 4,900 -200 Descending Miami Center
Wed 10:33:14 AM 25.3581 -81.6686 186° South 162 186 4,700 -300 Descending Miami Center
Wed 10:34:14 AM 25.3119 -81.6739 186° South 162 186 4,300 -300 Descending Miami Center
Wed 10:35:14 AM 25.2658 -81.6811 188° South 167 192 4,100 -250 Descending Miami Center
Wed 10:36:14 AM 25.2197 -81.6864 186° South 167 192 3,800 -100 Descending Miami Center
Wed 10:37:14 AM 25.1778 -81.6914 186° South 162 186 3,900 50 Climbing Miami Center
Wed 10:38:14 AM 25.1336 -81.6989 189° South 157 181 3,900  Level Miami Center
Wed 10:39:14 AM 25.0917 -81.7064 189° South 162 186 3,900 -200 Level Miami Center
Wed 10:40:14 AM 25.0494 -81.7231 200° South 162 186 3,500 -400 Descending Miami Center
Wed 10:41:14 AM 25.0047 -81.7442 203° Southwest 173 199 3,100 -300 Descending Miami Center
Wed 10:42:14 AM 24.9622 -81.7678 207° Southwest 173 199 2,900 -150 Descending Miami Center
Wed 10:43:14 AM 24.9219 -81.7889 205° Southwest 173 199 2,800  Descending Miami Center
Wed 10:44:14 AM 24.8836 -81.8128 209° Southwest 173 199 2,900 50 Climbing Miami Center
Wed 10:45:14 AM 24.8431 -81.8386 210° Southwest 168 193 2,900  Level Miami Center
Wed 10:46:14 AM 24.8067 -81.8622 210° Southwest 163 188 2,900  Level Miami Center
Wed 10:47:14 AM 24.7683 -81.8858 209° Southwest 163 188 2,900  Level Miami Center
Wed 10:49:00 AM 24.7332 -81.8228 122° Southeast  Level FlightAware Approximate
Wed 10:56:00 AM 24.5561 -81.7596 180° South  Level Estimated
Wed 10:57:00 AM 24.5561 -81.7596 180° South  Level Estimated
Wed 10:58:00 AM 24.5561 -81.7596 180° South  Level Estimated
Wed 10:59:00 AM 24.5561 -81.7596 180° South  Level Estimated
Wed 11:00:00 AM 24.5561 -81.7596 180° South  Level Estimated
Wed 11:01:00 AM 24.5561 -81.7596 180° South  Level Estimated
Wed 11:02:00 AM 24.5561 -81.7596 180° South  Level Estimated
Wed 11:03:00 AM 24.5561 -81.7596 180° South  Level Estimated
Wed 11:04:00 AM 24.5561 -81.7596 180° South  Level Estimated
Wed 11:05:00 AM 24.5561 -81.7596 180° South  Level Estimated
Wed 11:06:00 AM 24.5561 -81.7596 180° South  Level Estimated

Login

Don't have an account? Register now (free) for customized features, flight alerts, and more!